Time;durP1;ratioP1;P1;durP2;ratioP2;P2;SDS_P1;SDS_P2;PMS_P1;PMS_P2;Temp;Humidity;BMP_temperature;BMP_pressure;BME280_temperature;BME280_humidity;BME280_pressure;Samples;Min_cycle;Max_cycle;Signal;HPM_P1;HPM_P2
2021/06/14 00:02:07;;;;;;;;;;;;;;;;;;5071740;28;20307;-67
2021/06/14 00:04:34;;;;;;;;;;;;;;;;;;5071473;28;19940;-67
2021/06/14 00:07:01;;;;;;;;;;;;;;;;;;5071510;28;19924;-66
2021/06/14 00:09:28;;;;;;;;;;;;;;;;;;5071394;28;19946;-67
2021/06/14 00:11:55;;;;;;;;;;;;;;;;;;5072297;28;20046;-67
2021/06/14 00:14:22;;;;;;;;;;;;;;;;;;5071662;28;19975;-67
2021/06/14 00:16:49;;;;;;;;;;;;;;;;;;5071395;28;19952;-66
2021/06/14 00:19:16;;;;;;;;;;;;;;;;;;5071320;28;20307;-68
2021/06/14 00:21:43;;;;;;;;;;;;;;;;;;5071008;28;20281;-67
2021/06/14 00:24:10;;;;;;;;;;;;;;;;;;5071300;28;19924;-68
2021/06/14 00:26:37;;;;;;;;;;;;;;;;;;5071370;28;19925;-68
2021/06/14 00:29:04;;;;;;;;;;;;;;;;;;5071142;28;20015;-67
2021/06/14 00:31:31;;;;;;;;;;;;;;;;;;5071383;28;19928;-68
2021/06/14 00:33:58;;;;;;;;;;;;;;;;;;5071679;28;20281;-68
2021/06/14 00:36:24;;;;;;;;;;;;;;;;;;5070760;28;20307;-68
2021/06/14 00:38:51;;;;;;;;;;;;;;;;;;5071313;28;19930;-68
2021/06/14 00:41:19;;;;;;;;;;;;;;;;;;5071646;28;19931;-68
2021/06/14 00:43:46;;;;;;;;;;;;;;;;;;5071697;28;19932;-67
2021/06/14 00:46:13;;;;;;;;;;;;;;;;;;5072051;28;19924;-67
2021/06/14 00:48:40;;;;;;;;;;;;;;;;;;5072600;28;19925;-67
2021/06/14 00:51:07;;;;;;;;;;;;;;;;;;5074733;28;20385;-67
2021/06/14 00:53:34;;;;;;;;;;;;;;;;;;5075113;28;20359;-66
2021/06/14 00:56:01;;;;;;;;;;;;;;;;;;5074611;28;20377;-67
2021/06/14 00:58:28;;;;;;;;;;;;;;;;;;5074835;28;19935;-67
2021/06/14 01:00:55;;;;;;;;;;;;;;;;;;5074221;28;20395;-67
2021/06/14 01:03:22;;;;;;;;;;;;;;;;;;5074554;28;19932;-66
2021/06/14 01:05:49;;;;;;;;;;;;;;;;;;5074816;28;19924;-66
2021/06/14 01:08:16;;;;;;;;;;;;;;;;;;5074608;28;19931;-68
2021/06/14 01:10:43;;;;;;;;;;;;;;;;;;5074498;28;19924;-67
2021/06/14 01:13:10;;;;;;;;;;;;;;;;;;5074682;28;19928;-65
2021/06/14 01:15:36;;;;;;;;;;;;;;;;;;5074441;28;20007;-67
2021/06/14 01:18:03;;;;;;;;;;;;;;;;;;5074328;28;19925;-66
2021/06/14 01:20:30;;;;;;;;;;;;;;;;;;5074312;28;19940;-66
2021/06/14 01:22:57;;;;;;;;;;;;;;;;;;5074631;28;20020;-67
2021/06/14 01:25:24;;;;;;;;;;;;;;;;;;5074112;28;19925;-67
2021/06/14 01:27:52;;;;;;;;;;;;;;;;;;5073969;28;20292;-67
2021/06/14 01:30:19;;;;;;;;;;;;;;;;;;5073752;28;19985;-67
2021/06/14 01:32:46;;;;;;;;;;;;;;;;;;5074400;28;20015;-67
2021/06/14 01:35:13;;;;;;;;;;;;;;;;;;5073855;28;20392;-67
2021/06/14 01:37:40;;;;;;;;;;;;;;;;;;5074050;28;19928;-67
2021/06/14 01:40:07;;;;;;;;;;;;;;;;;;5073609;28;19924;-66
2021/06/14 01:42:34;;;;;;;;;;;;;;;;;;5074059;28;19925;-67
2021/06/14 01:45:01;;;;;;;;;;;;;;;;;;5073548;28;19931;-67
2021/06/14 01:47:28;;;;;;;;;;;;;;;;;;5073802;28;19954;-68
2021/06/14 01:49:55;;;;;;;;;;;;;;;;;;5073805;28;19932;-67
2021/06/14 01:52:22;;;;;;;;;;;;;;;;;;5074022;28;19935;-66
2021/06/14 01:54:50;;;;;;;;;;;;;;;;;;5073912;28;19925;-68
2021/06/14 01:57:17;;;;;;;;;;;;;;;;;;5073942;28;19928;-67
2021/06/14 01:59:44;;;;;;;;;;;;;;;;;;5073069;28;19924;-67
2021/06/14 02:02:11;;;;;;;;;;;;;;;;;;5073669;28;20372;-67
2021/06/14 02:04:38;;;;;;;;;;;;;;;;;;5073576;28;19935;-68
2021/06/14 02:07:04;;;;;;;;;;;;;;;;;;5073721;28;19925;-67
2021/06/14 02:09:31;;;;;;;;;;;;;;;;;;5073267;28;20300;-67
2021/06/14 02:11:58;;;;;;;;;;;;;;;;;;5073360;28;19925;-66
2021/06/14 02:14:25;;;;;;;;;;;;;;;;;;5073300;28;19924;-67
2021/06/14 02:16:52;;;;;;;;;;;;;;;;;;5073626;28;19930;-66
2021/06/14 02:19:20;;;;;;;;;;;;;;;;;;5072823;28;20386;-67
2021/06/14 02:21:47;;;;;;;;;;;;;;;;;;5074344;28;19925;-67
2021/06/14 02:24:14;;;;;;;;;;;;;;;;;;5073854;28;19999;-67
2021/06/14 02:26:41;;;;;;;;;;;;;;;;;;5073598;28;19929;-67
2021/06/14 02:29:07;;;;;;;;;;;;;;;;;;5073996;28;19931;-66
2021/06/14 02:31:34;;;;;;;;;;;;;;;;;;5075017;28;19931;-67
2021/06/14 02:34:01;;;;;;;;;;;;;;;;;;5075036;28;19925;-68
2021/06/14 02:36:28;;;;;;;;;;;;;;;;;;5073166;28;20392;-69
2021/06/14 02:38:55;;;;;;;;;;;;;;;;;;5073562;28;19925;-67
2021/06/14 02:41:22;;;;;;;;;;;;;;;;;;5072495;28;19931;-67
2021/06/14 02:43:49;;;;;;;;;;;;;;;;;;5073182;28;19924;-67
2021/06/14 02:46:16;;;;;;;;;;;;;;;;;;5072585;28;20373;-68
2021/06/14 02:48:43;;;;;;;;;;;;;;;;;;5072670;28;19939;-68
2021/06/14 02:51:10;;;;;;;;;;;;;;;;;;5072324;28;19928;-68
2021/06/14 02:53:37;;;;;;;;;;;;;;;;;;5073317;28;19925;-67
2021/06/14 02:56:04;;;;;;;;;;;;;;;;;;5072169;28;19928;-68
2021/06/14 02:58:32;;;;;;;;;;;;;;;;;;5072573;28;19943;-68
2021/06/14 03:00:59;;;;;;;;;;;;;;;;;;5072384;28;19925;-67
2021/06/14 03:03:26;;;;;;;;;;;;;;;;;;5072301;28;19924;-66
2021/06/14 03:05:53;;;;;;;;;;;;;;;;;;5072252;28;19970;-67
2021/06/14 03:08:20;;;;;;;;;;;;;;;;;;5072168;28;19925;-65
2021/06/14 03:10:47;;;;;;;;;;;;;;;;;;5071809;28;19928;-67
2021/06/14 03:13:16;;;;;;;;;;;;;;;;;;5072195;28;19935;-65
2021/06/14 03:15:43;;;;;;;;;;;;;;;;;;5072463;28;19924;-67
2021/06/14 03:18:10;;;;;;;;;;;;;;;;;;5102522;22;19932;-63
2021/06/14 03:20:37;;;;;;;;;;;;;;;;;;5091862;28;19927;-62
2021/06/14 03:23:04;;;;;;;;;;;;;;;;;;5092126;28;19924;-62
2021/06/14 03:25:31;;;;;;;;;;;;;;;;;;5092210;28;20310;-63
2021/06/14 03:27:58;;;;;;;;;;;;;;;;;;5092541;28;20302;-62
2021/06/14 03:30:26;;;;;;;;;;;;;;;;;;5091808;28;19946;-63
2021/06/14 03:32:53;;;;;;;;;;;;;;;;;;5092161;28;19940;-63
2021/06/14 03:35:20;;;;;;;;;;;;;;;;;;5092168;28;19928;-62
2021/06/14 03:37:47;;;;;;;;;;;;;;;;;;5092127;28;20544;-63
2021/06/14 03:40:14;;;;;;;;;;;;;;;;;;5091844;28;19924;-63
2021/06/14 03:42:41;;;;;;;;;;;;;;;;;;5091915;28;19924;-63
2021/06/14 03:45:08;;;;;;;;;;;;;;;;;;5092036;28;20421;-62
2021/06/14 03:47:36;;;;;;;;;;;;;;;;;;5091590;28;20406;-63
2021/06/14 03:50:03;;;;;;;;;;;;;;;;;;5091395;28;19977;-62
2021/06/14 03:52:30;;;;;;;;;;;;;;;;;;5091979;28;19924;-63
2021/06/14 03:54:57;;;;;;;;;;;;;;;;;;5091979;28;19935;-63
2021/06/14 03:57:24;;;;;;;;;;;;;;;;;;5091561;28;19924;-63
2021/06/14 03:59:51;;;;;;;;;;;;;;;;;;5091272;28;20387;-63
2021/06/14 04:02:18;;;;;;;;;;;;;;;;;;5092066;28;19924;-62
2021/06/14 04:04:47;;;;;;;;;;;;;;;;;;5092048;28;19931;-62
2021/06/14 04:07:14;;;;;;;;;;;;;;;;;;5085477;28;19925;-62
2021/06/14 04:09:42;;;;;;;;;;;;;;;;;;5071976;28;19924;-63
2021/06/14 04:12:09;;;;;;;;;;;;;;;;;;5071881;28;19967;-63
2021/06/14 04:14:38;;;;;;;;;;;;;;;;;;5071076;28;19924;-63
2021/06/14 04:17:05;;;;;;;;;;;;;;;;;;5071155;28;19924;-63
2021/06/14 04:19:32;;;;;;;;;;;;;;;;;;5070683;28;19925;-63
2021/06/14 04:21:58;;;;;;;;;;;;;;;;;;5071349;28;19925;-63
2021/06/14 04:24:25;;;;;;;;;;;;;;;;;;5073761;28;19924;-63
2021/06/14 04:26:52;;;;;;;;;;;;;;;;;;5075163;28;20011;-63
2021/06/14 04:29:19;;;;;;;;;;;;;;;;;;5074790;28;20125;-63
2021/06/14 04:31:46;;;;;;;;;;;;;;;;;;5074889;28;20384;-62
2021/06/14 04:34:13;;;;;;;;;;;;;;;;;;5075303;28;20289;-62
2021/06/14 04:36:40;;;;;;;;;;;;;;;;;;5075064;28;19924;-62
2021/06/14 04:39:08;;;;;;;;;;;;;;;;;;5074951;28;19935;-62
2021/06/14 04:41:35;;;;;;;;;;;;;;;;;;5074916;28;19925;-63
2021/06/14 04:44:02;;;;;;;;;;;;;;;;;;5075002;28;19924;-63
2021/06/14 04:46:29;;;;;;;;;;;;;;;;;;5074667;28;20285;-63
2021/06/14 04:48:56;;;;;;;;;;;;;;;;;;5074767;28;19976;-63
2021/06/14 04:51:23;;;;;;;;;;;;;;;;;;5074700;28;19924;-63
2021/06/14 04:53:51;;;;;;;;;;;;;;;;;;5074529;28;20026;-63
2021/06/14 04:56:18;;;;;;;;;;;;;;;;;;5074586;28;19932;-63
2021/06/14 04:58:45;;;;;;;;;;;;;;;;;;5074971;28;19931;-63
2021/06/14 05:01:12;;;;;;;;;;;;;;;;;;5074530;28;19924;-62
2021/06/14 05:03:39;;;;;;;;;;;;;;;;;;5074635;28;20295;-62
2021/06/14 05:06:06;;;;;;;;;;;;;;;;;;5074956;28;20452;-62
2021/06/14 05:08:33;;;;;;;;;;;;;;;;;;5092033;28;20185;-63
2021/06/14 05:10:59;;;;;;;;;;;;;;;;;;5094456;28;20276;-62
2021/06/14 05:13:26;;;;;;;;;;;;;;;;;;5094442;28;19931;-62
2021/06/14 05:15:53;;;;;;;;;;;;;;;;;;5094378;28;19924;-62
2021/06/14 05:18:20;;;;;;;;;;;;;;;;;;5094279;28;20019;-62
2021/06/14 05:20:47;;;;;;;;;;;;;;;;;;5094400;28;19928;-63
2021/06/14 05:23:14;;;;;;;;;;;;;;;;;;5095887;28;19924;-63
2021/06/14 05:25:41;;;;;;;;;;;;;;;;;;5097976;28;19925;-63
2021/06/14 05:28:08;;;;;;;;;;;;;;;;;;5095926;28;19947;-62
2021/06/14 05:30:35;;;;;;;;;;;;;;;;;;5094180;28;20360;-63
2021/06/14 05:33:02;;;;;;;;;;;;;;;;;;5097679;28;19924;-63
2021/06/14 05:35:31;;;;;;;;;;;;;;;;;;5093781;28;19924;-63
2021/06/14 05:37:58;;;;;;;;;;;;;;;;;;5094049;28;19963;-64
2021/06/14 05:40:25;;;;;;;;;;;;;;;;;;5093426;28;19924;-62
2021/06/14 05:42:52;;;;;;;;;;;;;;;;;;5093932;28;19930;-64
2021/06/14 05:45:19;;;;;;;;;;;;;;;;;;5093765;28;19928;-64
2021/06/14 05:47:47;;;;;;;;;;;;;;;;;;5093899;28;19925;-64
2021/06/14 05:50:14;;;;;;;;;;;;;;;;;;5093594;28;20275;-63
2021/06/14 05:52:41;;;;;;;;;;;;;;;;;;5093700;28;19930;-65
2021/06/14 05:55:08;;;;;;;;;;;;;;;;;;5093245;28;19935;-63
2021/06/14 05:57:35;;;;;;;;;;;;;;;;;;5093666;28;20026;-63
2021/06/14 06:00:02;;;;;;;;;;;;;;;;;;5092961;28;19932;-63
2021/06/14 06:02:29;;;;;;;;;;;;;;;;;;5093533;28;19931;-63
2021/06/14 06:04:56;;;;;;;;;;;;;;;;;;5093951;28;19931;-63
2021/06/14 06:07:23;;;;;;;;;;;;;;;;;;5085603;28;20300;-63
2021/06/14 06:09:50;;;;;;;;;;;;;;;;;;5073120;28;19928;-63
2021/06/14 06:12:17;;;;;;;;;;;;;;;;;;5073455;28;19931;-64
2021/06/14 06:14:44;;;;;;;;;;;;;;;;;;5073332;28;20388;-62
2021/06/14 06:17:11;;;;;;;;;;;;;;;;;;5073117;28;19947;-64
2021/06/14 06:19:38;;;;;;;;;;;;;;;;;;5073179;28;19935;-63
2021/06/14 06:22:05;;;;;;;;;;;;;;;;;;5073188;28;19924;-63
2021/06/14 06:24:32;;;;;;;;;;;;;;;;;;5073236;28;19924;-64
2021/06/14 06:26:59;;;;;;;;;;;;;;;;;;5073172;28;19924;-64
2021/06/14 06:29:25;;;;;;;;;;;;;;;;;;5073064;28;19925;-64
2021/06/14 06:31:52;;;;;;;;;;;;;;;;;;5073268;28;19936;-64
2021/06/14 06:34:19;;;;;;;;;;;;;;;;;;5072878;28;19929;-63
2021/06/14 06:36:46;;;;;;;;;;;;;;;;;;5072650;28;19924;-63
2021/06/14 06:39:13;;;;;;;;;;;;;;;;;;5072555;28;19924;-64
2021/06/14 06:41:40;;;;;;;;;;;;;;;;;;5072671;28;20403;-64
2021/06/14 06:44:09;;;;;;;;;;;;;;;;;;5072844;28;20011;-64
2021/06/14 06:46:36;;;;;;;;;;;;;;;;;;5071433;28;19932;-64
2021/06/14 06:49:02;;;;;;;;;;;;;;;;;;5072591;28;19924;-64
2021/06/14 06:51:29;;;;;;;;;;;;;;;;;;5072041;28;19925;-64
2021/06/14 06:56:49;;;;;;;;;;;;;;;;;;5187293;27;19964;-66
2021/06/14 06:59:16;;;;;;;;;;;;;;;;;;5171293;27;19923;-65
2021/06/14 07:01:44;;;;;;;;;;;;;;;;;;5171233;27;19930;-65
2021/06/14 07:04:11;;;;;;;;;;;;;;;;;;5171742;27;19923;-64
2021/06/14 07:06:38;;;;;;;;;;;;;;;;;;5171195;27;19923;-64
2021/06/14 07:09:05;;;;;;;;;;;;;;;;;;5171304;27;19923;-65
2021/06/14 07:11:32;;;;;;;;;;;;;;;;;;5171145;27;19927;-65
2021/06/14 07:13:58;;;;;;;;;;;;;;;;;;5171161;27;20010;-64
2021/06/14 07:16:25;;;;;;;;;;;;;;;;;;5170942;27;19923;-64
2021/06/14 07:18:52;;;;;;;;;;;;;;;;;;5171308;27;19945;-64
2021/06/14 07:21:19;;;;;;;;;;;;;;;;;;5170835;27;19923;-64
2021/06/14 07:23:46;;;;;;;;;;;;;;;;;;5170385;27;19931;-64
2021/06/14 07:26:13;;;;;;;;;;;;;;;;;;5150462;27;19923;-64
2021/06/14 07:28:40;;;;;;;;;;;;;;;;;;5150652;27;20286;-64
2021/06/14 07:31:07;;;;;;;;;;;;;;;;;;5149715;27;19934;-64
2021/06/14 07:33:35;;;;;;;;;;;;;;;;;;5150423;27;20386;-64
2021/06/14 07:36:02;;;;;;;;;;;;;;;;;;5150116;27;19984;-64
2021/06/14 07:38:29;;;;;;;;;;;;;;;;;;5150383;27;20112;-65
2021/06/14 07:40:56;;;;;;;;;;;;;;;;;;5149561;27;20014;-64
2021/06/14 07:43:23;;;;;;;;;;;;;;;;;;5149960;27;19923;-64
2021/06/14 07:45:50;;;;;;;;;;;;;;;;;;5150249;27;19924;-65
2021/06/14 07:48:17;;;;;;;;;;;;;;;;;;5150033;27;20371;-64
2021/06/14 07:50:44;;;;;;;;;;;;;;;;;;5150192;27;20283;-64
2021/06/14 07:53:11;;;;;;;;;;;;;;;;;;5149865;27;19930;-64
2021/06/14 07:55:38;;;;;;;;;;;;;;;;;;5149807;27;19930;-65
2021/06/14 07:58:05;;;;;;;;;;;;;;;;;;5149961;27;19923;-64
2021/06/14 08:00:32;;;;;;;;;;;;;;;;;;5149595;27;19927;-65
2021/06/14 08:02:58;;;;;;;;;;;;;;;;;;5150001;27;20370;-65
2021/06/14 08:05:25;;;;;;;;;;;;;;;;;;5149804;27;20260;-64
2021/06/14 08:07:52;;;;;;;;;;;;;;;;;;5149940;27;19926;-64
2021/06/14 08:10:19;;;;;;;;;;;;;;;;;;5156189;27;19923;-64
2021/06/14 08:12:49;;;;;;;;;;;;;;;;;;5156625;27;19930;-65
2021/06/14 08:15:16;;;;;;;;;;;;;;;;;;5156556;27;19927;-65
2021/06/14 08:17:43;;;;;;;;;;;;;;;;;;5156338;27;20030;-64
2021/06/14 08:20:13;;;;;;;;;;;;;;;;;;5156108;27;19967;-66
2021/06/14 08:25:25;;;;;;;;;;;;;;;;;;5141469;27;19919;-65
2021/06/14 08:27:52;;;;;;;;;;;;;;;;;;5135333;27;19928;-65
2021/06/14 08:30:19;;;;;;;;;;;;;;;;;;5135278;27;20295;-65
2021/06/14 08:32:46;;;;;;;;;;;;;;;;;;5135475;27;19930;-64
2021/06/14 08:35:14;;;;;;;;;;;;;;;;;;5135238;27;19924;-64
2021/06/14 08:37:40;;;;;;;;;;;;;;;;;;5134829;27;20426;-64
2021/06/14 08:40:07;;;;;;;;;;;;;;;;;;5135167;27;19923;-65
2021/06/14 08:42:34;;;;;;;;;;;;;;;;;;5135258;27;19923;-63
2021/06/14 08:45:01;;;;;;;;;;;;;;;;;;5135175;27;20002;-65
2021/06/14 08:47:28;;;;;;;;;;;;;;;;;;5134808;27;19923;-69
2021/06/14 08:49:55;;;;;;;;;;;;;;;;;;5134530;27;20387;-64
2021/06/14 08:52:22;;;;;;;;;;;;;;;;;;5134878;27;19927;-64
2021/06/14 08:54:51;;;;;;;;;;;;;;;;;;5134778;27;19973;-65
2021/06/14 08:57:18;;;;;;;;;;;;;;;;;;5135032;27;20017;-64
2021/06/14 08:59:45;;;;;;;;;;;;;;;;;;5134475;27;19930;-64
2021/06/14 09:02:12;;;;;;;;;;;;;;;;;;5134621;27;19924;-64
2021/06/14 09:04:39;;;;;;;;;;;;;;;;;;5134402;27;20310;-64
2021/06/14 09:07:06;;;;;;;;;;;;;;;;;;5140278;27;19923;-64
2021/06/14 09:09:33;;;;;;;;;;;;;;;;;;5155387;27;20017;-64
2021/06/14 09:12:01;;;;;;;;;;;;;;;;;;5155305;27;19930;-64
2021/06/14 09:14:28;;;;;;;;;;;;;;;;;;5155305;27;19923;-66
2021/06/14 09:16:55;;;;;;;;;;;;;;;;;;5155302;27;19930;-64
2021/06/14 09:19:22;;;;;;;;;;;;;;;;;;5153752;27;19974;-64
2021/06/14 09:21:54;;;;;;;;;;;;;;;;;;5155213;27;19946;-64
2021/06/14 09:24:21;;;;;;;;;;;;;;;;;;5149497;27;19923;-65
2021/06/14 09:26:48;;;;;;;;;;;;;;;;;;5133840;27;20402;-64
2021/06/14 09:29:15;;;;;;;;;;;;;;;;;;5133966;27;19959;-64
2021/06/14 09:31:42;;;;;;;;;;;;;;;;;;5134013;27;19927;-65
2021/06/14 09:34:09;;;;;;;;;;;;;;;;;;5134148;27;19923;-64
2021/06/14 09:36:36;;;;;;;;;;;;;;;;;;5133896;27;19930;-64
2021/06/14 09:39:03;;;;;;;;;;;;;;;;;;5134213;27;19930;-65
2021/06/14 09:41:30;;;;;;;;;;;;;;;;;;5133764;27;20418;-65
2021/06/14 09:43:57;;;;;;;;;;;;;;;;;;5134063;27;20395;-64
2021/06/14 09:46:25;;;;;;;;;;;;;;;;;;5133457;27;19930;-64
2021/06/14 09:48:52;;;;;;;;;;;;;;;;;;5133867;27;20321;-64
2021/06/14 09:51:20;;;;;;;;;;;;;;;;;;5133286;27;19929;-64
2021/06/14 09:53:48;;;;;;;;;;;;;;;;;;5133588;27;19930;-65
2021/06/14 09:56:15;;;;;;;;;;;;;;;;;;5133248;27;20398;-64
2021/06/14 09:58:42;;;;;;;;;;;;;;;;;;5133844;27;19928;-64
2021/06/14 10:01:12;;;;;;;;;;;;;;;;;;5132901;27;19935;-64
2021/06/14 10:03:39;;;;;;;;;;;;;;;;;;5133869;27;20014;-64
2021/06/14 10:06:06;;;;;;;;;;;;;;;;;;5133356;27;19955;-65
2021/06/14 10:08:33;;;;;;;;;;;;;;;;;;5151821;27;19923;-64
2021/06/14 10:11:00;;;;;;;;;;;;;;;;;;5153773;27;19929;-64
2021/06/14 10:13:28;;;;;;;;;;;;;;;;;;5154352;27;19946;-65
2021/06/14 10:15:55;;;;;;;;;;;;;;;;;;5154153;27;19923;-64
2021/06/14 10:18:22;;;;;;;;;;;;;;;;;;5158122;27;20305;-64
2021/06/14 10:20:51;;;;;;;;;;;;;;;;;;5160270;27;19965;-66
2021/06/14 10:23:18;;;;;;;;;;;;;;;;;;5160384;27;19923;-64
2021/06/14 10:25:45;;;;;;;;;;;;;;;;;;5137047;27;19930;-64
2021/06/14 10:28:12;;;;;;;;;;;;;;;;;;5133924;27;19935;-65
2021/06/14 10:30:39;;;;;;;;;;;;;;;;;;5139620;27;20018;-65
2021/06/14 10:33:05;;;;;;;;;;;;;;;;;;5140227;27;19931;-65
2021/06/14 10:35:32;;;;;;;;;;;;;;;;;;5140915;27;19934;-64
2021/06/14 10:37:59;;;;;;;;;;;;;;;;;;5136429;27;19931;-64
2021/06/14 10:40:26;;;;;;;;;;;;;;;;;;5132416;27;19927;-64
2021/06/14 10:42:53;;;;;;;;;;;;;;;;;;5132535;27;19923;-64
2021/06/14 10:45:20;;;;;;;;;;;;;;;;;;5132544;27;19929;-64
2021/06/14 10:47:47;;;;;;;;;;;;;;;;;;5132688;27;19930;-65
2021/06/14 10:50:15;;;;;;;;;;;;;;;;;;5132235;27;19954;-65
2021/06/14 10:52:42;;;;;;;;;;;;;;;;;;5132451;27;20360;-65
2021/06/14 10:55:09;;;;;;;;;;;;;;;;;;5132411;27;19923;-65
2021/06/14 10:57:36;;;;;;;;;;;;;;;;;;5132225;27;19930;-65
2021/06/14 11:00:03;;;;;;;;;;;;;;;;;;5132219;27;19939;-64
2021/06/14 11:02:30;;;;;;;;;;;;;;;;;;5132453;27;19969;-64
2021/06/14 11:04:57;;;;;;;;;;;;;;;;;;5141558;28;19984;-64
2021/06/14 11:07:24;;;;;;;;;;;;;;;;;;5149942;27;19923;-65
2021/06/14 11:09:51;;;;;;;;;;;;;;;;;;5162428;27;20402;-64
2021/06/14 11:12:18;;;;;;;;;;;;;;;;;;5153608;27;19930;-64
2021/06/14 11:14:45;;;;;;;;;;;;;;;;;;5153370;27;20018;-64
2021/06/14 11:17:12;;;;;;;;;;;;;;;;;;5152969;27;19923;-64
2021/06/14 11:19:38;;;;;;;;;;;;;;;;;;5152972;27;20008;-64
2021/06/14 11:22:05;;;;;;;;;;;;;;;;;;5152788;27;19974;-64
2021/06/14 11:24:32;;;;;;;;;;;;;;;;;;5145610;27;19924;-65
2021/06/14 11:27:00;;;;;;;;;;;;;;;;;;5132318;27;19930;-64
2021/06/14 11:29:27;;;;;;;;;;;;;;;;;;5131758;27;19934;-64
2021/06/14 11:31:54;;;;;;;;;;;;;;;;;;5132316;28;19930;-64
2021/06/14 11:34:21;;;;;;;;;;;;;;;;;;5132330;28;19929;-64
2021/06/14 11:36:48;;;;;;;;;;;;;;;;;;5131688;27;20363;-64
2021/06/14 11:39:15;;;;;;;;;;;;;;;;;;5131833;28;19924;-64
2021/06/14 11:41:42;;;;;;;;;;;;;;;;;;5132871;27;19923;-64
2021/06/14 11:44:09;;;;;;;;;;;;;;;;;;5136007;27;20371;-63
2021/06/14 11:46:36;;;;;;;;;;;;;;;;;;5135704;27;19923;-64
2021/06/14 11:49:03;;;;;;;;;;;;;;;;;;5135877;27;19927;-64
2021/06/14 11:51:30;;;;;;;;;;;;;;;;;;5135338;27;19923;-64
2021/06/14 11:53:57;;;;;;;;;;;;;;;;;;5135866;27;19923;-64
2021/06/14 11:56:24;;;;;;;;;;;;;;;;;;5135336;27;19923;-64
2021/06/14 11:58:51;;;;;;;;;;;;;;;;;;5135742;27;20010;-64
2021/06/14 12:01:18;;;;;;;;;;;;;;;;;;5135337;27;19924;-64
2021/06/14 12:03:45;;;;;;;;;;;;;;;;;;5136158;27;20398;-65
2021/06/14 12:06:12;;;;;;;;;;;;;;;;;;5135684;27;20436;-65
2021/06/14 12:08:39;;;;;;;;;;;;;;;;;;5154432;27;20024;-64
2021/06/14 12:11:06;;;;;;;;;;;;;;;;;;5156120;27;19923;-65
2021/06/14 12:13:33;;;;;;;;;;;;;;;;;;5156176;27;19931;-65
2021/06/14 12:16:00;;;;;;;;;;;;;;;;;;5155951;27;19934;-66
2021/06/14 12:18:27;;;;;;;;;;;;;;;;;;5155705;27;20302;-65
2021/06/14 12:20:54;;;;;;;;;;;;;;;;;;5155664;27;19929;-65
2021/06/14 12:23:21;;;;;;;;;;;;;;;;;;5156377;27;19929;-63
2021/06/14 12:25:48;;;;;;;;;;;;;;;;;;5137696;27;19923;-65
2021/06/14 12:28:15;;;;;;;;;;;;;;;;;;5135115;27;19923;-65
2021/06/14 12:30:42;;;;;;;;;;;;;;;;;;5134618;27;19930;-65
2021/06/14 12:33:10;;;;;;;;;;;;;;;;;;5135137;27;19923;-65
2021/06/14 12:35:37;;;;;;;;;;;;;;;;;;5135115;27;19949;-65
2021/06/14 12:38:04;;;;;;;;;;;;;;;;;;5135124;27;19934;-65
2021/06/14 12:40:31;;;;;;;;;;;;;;;;;;5134801;27;19923;-64
2021/06/14 12:42:58;;;;;;;;;;;;;;;;;;5134837;27;19929;-64
2021/06/14 12:45:25;;;;;;;;;;;;;;;;;;5134889;27;20014;-64
2021/06/14 12:47:52;;;;;;;;;;;;;;;;;;5134800;27;20006;-65
2021/06/14 12:50:19;;;;;;;;;;;;;;;;;;5134497;27;19923;-65
2021/06/14 12:52:46;;;;;;;;;;;;;;;;;;5134704;27;19923;-64
2021/06/14 12:55:12;;;;;;;;;;;;;;;;;;5134532;27;19946;-65
2021/06/14 12:57:39;;;;;;;;;;;;;;;;;;5134592;27;20265;-65
2021/06/14 13:00:06;;;;;;;;;;;;;;;;;;5134125;27;20405;-64
2021/06/14 13:02:33;;;;;;;;;;;;;;;;;;5134729;27;19976;-64
2021/06/14 13:05:00;;;;;;;;;;;;;;;;;;5134328;27;19924;-65
2021/06/14 13:07:27;;;;;;;;;;;;;;;;;;5143078;27;20295;-64
2021/06/14 13:09:54;;;;;;;;;;;;;;;;;;5154763;27;20410;-65
2021/06/14 13:12:21;;;;;;;;;;;;;;;;;;5154973;27;19930;-65
2021/06/14 13:14:48;;;;;;;;;;;;;;;;;;5155010;27;20335;-65
2021/06/14 13:17:18;;;;;;;;;;;;;;;;;;5155350;27;19924;-65
2021/06/14 13:19:45;;;;;;;;;;;;;;;;;;5154577;27;20386;-65
2021/06/14 13:22:13;;;;;;;;;;;;;;;;;;5154678;27;19923;-64
2021/06/14 13:24:44;;;;;;;;;;;;;;;;;;5146739;27;19979;-65
2021/06/14 13:27:11;;;;;;;;;;;;;;;;;;5133389;27;19963;-65
2021/06/14 13:29:38;;;;;;;;;;;;;;;;;;5133947;27;19927;-65
2021/06/14 13:32:05;;;;;;;;;;;;;;;;;;5133701;27;20022;-65
2021/06/14 13:34:34;;;;;;;;;;;;;;;;;;5133996;27;20311;-65
2021/06/14 13:37:01;;;;;;;;;;;;;;;;;;5133548;27;19970;-65
2021/06/14 13:39:29;;;;;;;;;;;;;;;;;;5133718;27;20014;-65
2021/06/14 13:41:56;;;;;;;;;;;;;;;;;;5133645;27;20398;-65
2021/06/14 13:44:23;;;;;;;;;;;;;;;;;;5133487;27;20428;-65
2021/06/14 13:46:50;;;;;;;;;;;;;;;;;;5133565;27;19924;-65
2021/06/14 13:49:17;;;;;;;;;;;;;;;;;;5133342;27;19923;-64
2021/06/14 13:51:44;;;;;;;;;;;;;;;;;;5133514;27;19923;-64
2021/06/14 13:54:11;;;;;;;;;;;;;;;;;;5133941;27;19992;-64
2021/06/14 13:56:38;;;;;;;;;;;;;;;;;;5133108;27;19927;-64
2021/06/14 13:59:05;;;;;;;;;;;;;;;;;;5133261;27;19996;-63
2021/06/14 14:01:32;;;;;;;;;;;;;;;;;;5133078;27;19959;-64
2021/06/14 14:03:59;;;;;;;;;;;;;;;;;;5133071;27;20019;-64
2021/06/14 14:06:26;;;;;;;;;;;;;;;;;;5132492;27;19929;-64
2021/06/14 14:08:53;;;;;;;;;;;;;;;;;;5133003;27;19923;-65
2021/06/14 14:11:20;;;;;;;;;;;;;;;;;;5132879;27;19928;-65
2021/06/14 14:13:47;;;;;;;;;;;;;;;;;;5133257;27;19973;-65
2021/06/14 14:16:14;;;;;;;;;;;;;;;;;;5132981;27;19982;-63
2021/06/14 14:18:41;;;;;;;;;;;;;;;;;;5133020;27;20391;-65
2021/06/14 14:21:08;;;;;;;;;;;;;;;;;;5132857;27;19923;-63
2021/06/14 14:23:37;;;;;;;;;;;;;;;;;;5133548;27;19932;-64
2021/06/14 14:26:04;;;;;;;;;;;;;;;;;;5152960;27;19945;-64
2021/06/14 14:28:31;;;;;;;;;;;;;;;;;;5153952;27;20329;-65
2021/06/14 14:30:58;;;;;;;;;;;;;;;;;;5153542;27;19923;-64
2021/06/14 14:33:25;;;;;;;;;;;;;;;;;;5153435;27;19979;-64
2021/06/14 14:35:52;;;;;;;;;;;;;;;;;;5153455;27;20018;-64
2021/06/14 14:38:19;;;;;;;;;;;;;;;;;;5153501;27;20025;-64
2021/06/14 14:40:46;;;;;;;;;;;;;;;;;;5153097;27;19923;-64
2021/06/14 14:43:13;;;;;;;;;;;;;;;;;;5153558;27;19923;-64
2021/06/14 14:45:42;;;;;;;;;;;;;;;;;;5153157;27;19923;-64
2021/06/14 14:48:09;;;;;;;;;;;;;;;;;;5153345;27;20363;-64
2021/06/14 14:50:36;;;;;;;;;;;;;;;;;;5152597;27;19923;-64
2021/06/14 14:53:03;;;;;;;;;;;;;;;;;;5153259;27;19969;-64
2021/06/14 14:55:30;;;;;;;;;;;;;;;;;;5153187;27;19923;-65
2021/06/14 14:57:57;;;;;;;;;;;;;;;;;;5153018;27;19923;-63
2021/06/14 15:00:24;;;;;;;;;;;;;;;;;;5153122;27;19923;-64
2021/06/14 15:02:51;;;;;;;;;;;;;;;;;;5152845;27;20014;-64
2021/06/14 15:05:18;;;;;;;;;;;;;;;;;;5152968;27;19929;-64
2021/06/14 15:07:45;;;;;;;;;;;;;;;;;;5152682;27;19927;-65
2021/06/14 15:10:12;;;;;;;;;;;;;;;;;;5152706;27;20404;-64
2021/06/14 15:12:39;;;;;;;;;;;;;;;;;;5152888;27;19923;-64
2021/06/14 15:15:08;;;;;;;;;;;;;;;;;;5153192;27;19968;-64
2021/06/14 15:17:35;;;;;;;;;;;;;;;;;;5155270;27;19972;-64
2021/06/14 15:20:02;;;;;;;;;;;;;;;;;;5157001;27;20025;-64
2021/06/14 15:22:30;;;;;;;;;;;;;;;;;;5157200;27;19923;-64
2021/06/14 15:24:57;;;;;;;;;;;;;;;;;;5146484;27;19923;-64
2021/06/14 15:27:24;;;;;;;;;;;;;;;;;;5136132;27;19923;-64
2021/06/14 15:29:51;;;;;;;;;;;;;;;;;;5135667;27;19923;-64
2021/06/14 15:32:18;;;;;;;;;;;;;;;;;;5136004;27;19923;-64
2021/06/14 15:34:44;;;;;;;;;;;;;;;;;;5136209;27;20070;-65
2021/06/14 15:37:11;;;;;;;;;;;;;;;;;;5136112;27;19923;-65
2021/06/14 15:39:38;;;;;;;;;;;;;;;;;;5135847;27;20314;-65
2021/06/14 15:42:06;;;;;;;;;;;;;;;;;;5136180;27;19927;-65
2021/06/14 15:44:33;;;;;;;;;;;;;;;;;;5139568;27;19990;-65
2021/06/14 15:47:00;;;;;;;;;;;;;;;;;;5138882;27;19929;-65
2021/06/14 15:49:27;;;;;;;;;;;;;;;;;;5138021;27;19923;-65
2021/06/14 15:51:54;;;;;;;;;;;;;;;;;;5136243;27;19929;-64
2021/06/14 15:54:21;;;;;;;;;;;;;;;;;;5139264;27;19923;-64
2021/06/14 15:56:48;;;;;;;;;;;;;;;;;;5140203;27;20291;-64
2021/06/14 15:59:15;;;;;;;;;;;;;;;;;;5139298;27;19990;-64
2021/06/14 16:01:42;;;;;;;;;;;;;;;;;;5138560;27;19934;-65
2021/06/14 16:04:09;;;;;;;;;;;;;;;;;;5135443;27;20375;-63
2021/06/14 16:06:36;;;;;;;;;;;;;;;;;;5136490;27;20010;-63
2021/06/14 16:09:03;;;;;;;;;;;;;;;;;;5155884;27;19929;-63
2021/06/14 16:11:33;;;;;;;;;;;;;;;;;;5155933;27;20404;-63
2021/06/14 16:13:59;;;;;;;;;;;;;;;;;;5155839;27;19933;-63
2021/06/14 16:16:28;;;;;;;;;;;;;;;;;;5156083;27;20013;-64
2021/06/14 16:18:55;;;;;;;;;;;;;;;;;;5155890;27;19971;-64
2021/06/14 16:21:22;;;;;;;;;;;;;;;;;;5155760;27;20378;-64
2021/06/14 16:23:48;;;;;;;;;;;;;;;;;;5155258;27;19923;-64
2021/06/14 16:26:16;;;;;;;;;;;;;;;;;;5134810;27;19927;-64
2021/06/14 16:28:43;;;;;;;;;;;;;;;;;;5134874;27;20287;-64
2021/06/14 16:31:11;;;;;;;;;;;;;;;;;;5134885;27;20004;-65
2021/06/14 16:33:39;;;;;;;;;;;;;;;;;;5135262;27;19924;-65
2021/06/14 16:36:06;;;;;;;;;;;;;;;;;;5134890;27;19972;-65
2021/06/14 16:38:33;;;;;;;;;;;;;;;;;;5134730;27;19923;-65
2021/06/14 16:41:00;;;;;;;;;;;;;;;;;;5134791;27;20013;-65
2021/06/14 16:43:31;;;;;;;;;;;;;;;;;;5136181;27;19931;-65
2021/06/14 16:45:58;;;;;;;;;;;;;;;;;;5144398;27;19923;-65
2021/06/14 16:48:25;;;;;;;;;;;;;;;;;;5145243;27;19986;-65
2021/06/14 16:50:52;;;;;;;;;;;;;;;;;;5142521;27;19924;-65